createdAt,value
2023-07-22T00:00:15.846Z,17.40
2023-07-22T00:03:05.088Z,17.36
2023-07-22T00:05:34.131Z,17.33
2023-07-22T00:08:03.049Z,17.32
2023-07-22T00:10:31.814Z,17.29
2023-07-22T00:13:00.549Z,17.25
2023-07-22T00:15:30.463Z,17.23
2023-07-22T00:17:59.268Z,17.21
2023-07-22T00:20:30.421Z,17.21
2023-07-22T00:22:59.815Z,17.19
2023-07-22T00:25:28.711Z,17.17
2023-07-22T00:27:58.142Z,17.18
2023-07-22T00:30:28.965Z,17.16
2023-07-22T00:32:58.229Z,17.15
2023-07-22T00:35:27.096Z,17.12
2023-07-22T00:37:56.132Z,17.12
2023-07-22T00:40:25.219Z,17.11
2023-07-22T00:42:54.091Z,17.13
2023-07-22T00:45:26.916Z,17.14
2023-07-22T00:47:55.865Z,17.13
2023-07-22T00:50:27.331Z,17.08
2023-07-22T00:52:56.501Z,17.06
2023-07-22T00:55:26.412Z,17.03
2023-07-22T00:57:56.704Z,17.00
2023-07-22T01:00:28.625Z,17.00
2023-07-22T01:02:57.899Z,17.00
2023-07-22T01:05:31.416Z,17.00
2023-07-22T01:08:00.543Z,17.00
2023-07-22T01:10:29.584Z,17.00
2023-07-22T01:12:59.448Z,16.99
2023-07-22T01:15:29.719Z,16.99
2023-07-22T01:18:02.134Z,17.02
2023-07-22T01:20:31.889Z,17.01
2023-07-22T01:23:01.088Z,17.00
2023-07-22T01:25:30.903Z,16.98
2023-07-22T01:28:00.676Z,16.97
2023-07-22T01:30:29.554Z,16.96
2023-07-22T01:33:01.119Z,16.95
2023-07-22T01:35:29.891Z,16.94
2023-07-22T01:37:58.734Z,16.93
2023-07-22T01:40:29.138Z,16.94
2023-07-22T01:42:57.897Z,16.92
2023-07-22T01:45:26.727Z,16.89
2023-07-22T01:47:55.535Z,16.87
2023-07-22T01:50:24.814Z,16.86
2023-07-22T01:52:53.689Z,16.82
2023-07-22T01:55:24.766Z,16.80
2023-07-22T01:57:54.764Z,16.78
2023-07-22T02:00:27.793Z,16.77
2023-07-22T02:02:57.890Z,16.74
2023-07-22T02:05:27.950Z,16.71
2023-07-22T02:07:56.696Z,16.68
2023-07-22T02:10:25.677Z,16.68
2023-07-22T02:12:54.627Z,16.65
2023-07-22T02:15:26.559Z,16.61
2023-07-22T02:17:57.205Z,16.58
2023-07-22T02:20:29.385Z,16.56
2023-07-22T02:22:58.247Z,16.55
2023-07-22T02:25:27.165Z,16.54
2023-07-22T02:27:55.857Z,16.52
2023-07-22T02:30:27.648Z,16.50
2023-07-22T02:32:56.808Z,16.47
2023-07-22T02:35:25.880Z,16.46
2023-07-22T02:37:54.775Z,16.44
2023-07-22T02:40:26.149Z,16.45
2023-07-22T02:42:55.039Z,16.44
2023-07-22T02:45:27.433Z,16.45
2023-07-22T02:47:56.296Z,16.44
2023-07-22T02:50:25.193Z,16.44
2023-07-22T02:52:54.232Z,16.45
2023-07-22T02:55:26.534Z,16.44
2023-07-22T02:57:55.351Z,16.42
2023-07-22T03:00:28.277Z,16.40
2023-07-22T03:03:01.209Z,16.38
2023-07-22T03:05:31.395Z,16.38
2023-07-22T03:08:00.676Z,16.38
2023-07-22T03:10:29.850Z,16.32
2023-07-22T03:13:00.246Z,16.26
2023-07-22T03:15:29.163Z,16.23
2023-07-22T03:17:59.761Z,16.21
2023-07-22T03:20:29.063Z,16.21
2023-07-22T03:22:57.790Z,16.21
2023-07-22T03:25:26.951Z,16.26
2023-07-22T03:27:57.012Z,16.31
2023-07-22T03:30:26.536Z,16.35
2023-07-22T03:32:55.437Z,16.39
2023-07-22T03:35:26.452Z,16.43
2023-07-22T03:37:55.391Z,16.48
2023-07-22T03:40:29.224Z,16.54
2023-07-22T03:42:58.246Z,16.58
2023-07-22T03:45:27.264Z,16.62
2023-07-22T03:47:58.725Z,16.68
2023-07-22T03:50:27.933Z,16.73
2023-07-22T03:52:56.974Z,16.78
2023-07-22T03:55:26.681Z,16.80
2023-07-22T03:57:55.575Z,16.83
2023-07-22T04:00:26.546Z,16.86
2023-07-22T04:02:55.450Z,16.91
2023-07-22T04:05:25.006Z,16.95
2023-07-22T04:07:53.941Z,17.00
2023-07-22T04:10:25.182Z,17.04
2023-07-22T04:12:54.024Z,17.08
2023-07-22T04:15:25.537Z,17.14
2023-07-22T04:17:54.353Z,17.20
2023-07-22T04:20:25.576Z,17.24
2023-07-22T04:22:54.540Z,17.28
2023-07-22T04:25:26.045Z,17.33
2023-07-22T04:27:55.099Z,17.37
2023-07-22T04:30:26.582Z,17.40
2023-07-22T04:32:56.133Z,17.43
2023-07-22T04:35:25.471Z,17.42
2023-07-22T04:37:54.277Z,17.46
2023-07-22T04:40:25.706Z,17.51
2023-07-22T04:42:54.441Z,17.56
2023-07-22T04:45:25.958Z,17.59
2023-07-22T04:47:54.960Z,17.60
2023-07-22T04:50:26.306Z,17.60
2023-07-22T04:52:56.142Z,17.60
2023-07-22T04:55:26.831Z,17.60
2023-07-22T04:57:55.871Z,17.61
2023-07-22T05:00:29.672Z,17.59
2023-07-22T05:02:57.677Z,17.57
2023-07-22T05:05:26.591Z,17.55
2023-07-22T05:07:55.408Z,17.54
2023-07-22T05:10:25.636Z,17.52
2023-07-22T05:12:54.570Z,17.51
2023-07-22T05:15:31.603Z,17.52
2023-07-22T05:18:00.598Z,17.54
2023-07-22T05:20:29.793Z,17.54
2023-07-22T05:22:59.326Z,17.55
2023-07-22T05:25:28.279Z,17.53
2023-07-22T05:27:57.115Z,17.51
2023-07-22T05:30:34.987Z,17.49
2023-07-22T05:33:05.395Z,17.48
2023-07-22T05:35:34.415Z,17.50
2023-07-22T05:38:04.829Z,17.53
2023-07-22T05:40:33.686Z,17.59
2023-07-22T05:43:03.450Z,17.65
2023-07-22T05:45:32.290Z,17.76
2023-07-22T05:48:01.185Z,17.86
2023-07-22T05:50:29.972Z,17.98
2023-07-22T05:52:59.163Z,18.07
2023-07-22T05:55:27.958Z,18.16
2023-07-22T05:57:57.150Z,18.25
2023-07-22T06:00:26.181Z,18.34
2023-07-22T06:02:55.149Z,18.45
2023-07-22T06:05:25.581Z,18.70
2023-07-22T06:07:57.672Z,18.78
2023-07-22T06:10:26.591Z,18.86
2023-07-22T06:12:55.385Z,18.96
2023-07-22T06:15:26.226Z,19.06
2023-07-22T06:17:55.290Z,19.15
2023-07-22T06:20:24.662Z,19.16
2023-07-22T06:22:53.468Z,19.16
2023-07-22T06:25:23.741Z,19.22
2023-07-22T06:27:54.760Z,19.32
2023-07-22T06:30:28.033Z,19.44
2023-07-22T06:32:57.250Z,19.52
2023-07-22T06:35:26.112Z,19.71
2023-07-22T06:37:54.786Z,19.96
2023-07-22T06:40:24.716Z,20.14
2023-07-22T06:42:53.422Z,20.28
2023-07-22T06:45:24.903Z,20.38
2023-07-22T06:47:54.199Z,20.37
2023-07-22T06:50:25.682Z,20.36
2023-07-22T06:52:54.576Z,20.37
2023-07-22T06:55:26.137Z,20.43
2023-07-22T06:57:57.675Z,20.52
2023-07-22T07:00:26.656Z,20.62
2023-07-22T07:02:56.232Z,20.69
2023-07-22T07:05:26.637Z,20.77
2023-07-22T07:07:56.326Z,20.81
2023-07-22T07:10:25.519Z,20.90
2023-07-22T07:12:54.290Z,20.98
2023-07-22T07:15:25.048Z,21.11
2023-07-22T07:17:54.021Z,21.33
2023-07-22T07:20:26.458Z,21.44
2023-07-22T07:22:55.344Z,21.54
2023-07-22T07:25:27.475Z,21.74
2023-07-22T07:27:56.357Z,21.95
2023-07-22T07:30:28.447Z,22.17
2023-07-22T07:32:57.409Z,22.35
2023-07-22T07:35:26.358Z,22.30
2023-07-22T07:37:55.323Z,22.32
2023-07-22T07:40:27.462Z,22.34
2023-07-22T07:42:56.489Z,22.35
2023-07-22T07:45:26.600Z,22.40
2023-07-22T07:47:55.477Z,22.47
2023-07-22T07:50:26.139Z,22.60
2023-07-22T07:52:55.205Z,22.66
2023-07-22T07:55:25.078Z,22.61
2023-07-22T07:57:53.869Z,22.51
2023-07-22T08:00:25.829Z,22.51
2023-07-22T08:02:54.546Z,22.50
2023-07-22T08:05:26.527Z,22.56
2023-07-22T08:07:55.533Z,22.62
2023-07-22T08:10:27.460Z,22.65
2023-07-22T08:12:56.449Z,22.62
2023-07-22T08:15:26.238Z,22.61
2023-07-22T08:17:55.142Z,22.60
2023-07-22T08:20:24.801Z,22.50
2023-07-22T08:22:53.735Z,22.51
2023-07-22T08:25:25.306Z,22.55
2023-07-22T08:27:54.034Z,22.57
2023-07-22T08:30:26.316Z,22.62
2023-07-22T08:32:57.274Z,22.65
2023-07-22T08:35:27.068Z,22.63
2023-07-22T08:37:55.974Z,22.62
2023-07-22T08:40:25.585Z,22.63
2023-07-22T08:42:55.117Z,22.68
2023-07-22T08:45:33.235Z,22.71
2023-07-22T08:48:05.346Z,22.76
2023-07-22T08:50:40.075Z,22.85
2023-07-22T08:53:10.883Z,22.98
2023-07-22T08:55:43.008Z,23.16
2023-07-22T08:58:13.643Z,23.25
2023-07-22T09:00:43.205Z,23.31
2023-07-22T09:03:16.336Z,23.46
2023-07-22T09:05:46.119Z,23.61
2023-07-22T09:08:15.299Z,23.88
2023-07-22T09:10:44.674Z,24.26
2023-07-22T09:13:16.549Z,24.67
2023-07-22T09:15:46.305Z,25.02
2023-07-22T09:18:16.466Z,25.29
2023-07-22T09:20:45.357Z,25.46
2023-07-22T09:23:15.317Z,25.35
2023-07-22T09:25:45.398Z,25.44
2023-07-22T09:28:14.928Z,25.64
2023-07-22T09:30:43.733Z,25.70
2023-07-22T09:33:23.172Z,26.06
2023-07-22T09:35:51.976Z,26.42
2023-07-22T09:38:25.201Z,26.67
2023-07-22T09:40:53.288Z,27.08
2023-07-22T09:43:24.095Z,27.38
2023-07-22T09:45:53.998Z,27.43
2023-07-22T09:48:24.211Z,27.15
2023-07-22T09:50:59.195Z,27.39
2023-07-22T09:53:28.125Z,27.68
2023-07-22T09:56:03.923Z,27.70
2023-07-22T09:58:34.103Z,27.41
2023-07-22T10:01:04.908Z,27.23
2023-07-22T10:03:39.179Z,27.38
2023-07-22T10:06:09.133Z,27.40
2023-07-22T10:08:46.113Z,27.53
2023-07-22T10:11:16.643Z,27.58
2023-07-22T10:13:46.141Z,27.33
2023-07-22T10:16:16.162Z,26.97
2023-07-22T10:18:46.112Z,26.85
2023-07-22T10:21:15.887Z,27.06
2023-07-22T10:23:48.502Z,27.37
2023-07-22T10:26:21.309Z,27.68
2023-07-22T10:28:56.669Z,27.92
2023-07-22T10:31:25.864Z,28.21
2023-07-22T10:33:55.323Z,28.56
2023-07-22T10:36:30.867Z,28.43
2023-07-22T10:39:04.288Z,27.99
2023-07-22T10:41:39.142Z,27.59
2023-07-22T10:44:10.996Z,27.28
2023-07-22T10:46:44.129Z,26.87
2023-07-22T10:49:16.860Z,27.12
2023-07-22T10:51:51.012Z,27.59
2023-07-22T10:54:34.502Z,27.96
2023-07-22T10:57:04.956Z,28.31
2023-07-22T10:59:36.527Z,28.28
2023-07-22T11:02:23.665Z,28.07
2023-07-22T11:04:56.832Z,28.10
2023-07-22T11:07:33.882Z,28.19
2023-07-22T11:10:16.941Z,28.49
2023-07-22T11:12:46.679Z,28.78
2023-07-22T11:15:19.263Z,28.69
2023-07-22T11:17:49.463Z,28.99
2023-07-22T11:20:18.494Z,29.07
2023-07-22T11:22:48.129Z,28.92
2023-07-22T11:25:20.252Z,28.65
2023-07-22T11:27:53.666Z,28.39
2023-07-22T11:30:28.272Z,28.39
2023-07-22T11:33:00.444Z,28.42
2023-07-22T11:35:30.202Z,28.60
2023-07-22T11:38:03.999Z,28.86
2023-07-22T11:40:35.681Z,28.84
2023-07-22T11:43:05.109Z,28.71
2023-07-22T11:45:34.094Z,28.38
2023-07-22T11:48:09.854Z,28.07
2023-07-22T11:50:38.849Z,27.64
2023-07-22T11:53:09.486Z,27.35
2023-07-22T11:55:41.104Z,27.15
2023-07-22T11:58:11.915Z,27.08
2023-07-22T12:00:52.917Z,27.05
2023-07-22T12:03:34.610Z,27.48
2023-07-22T12:06:04.459Z,27.85
2023-07-22T12:08:33.385Z,28.10
2023-07-22T12:11:04.446Z,28.30
2023-07-22T12:13:40.694Z,28.47
2023-07-22T12:16:09.598Z,28.45
2023-07-22T12:18:45.452Z,28.36
2023-07-22T12:21:16.390Z,28.20
2023-07-22T12:23:48.231Z,27.98
2023-07-22T12:26:17.025Z,27.77
2023-07-22T12:28:45.827Z,27.54
2023-07-22T12:31:15.363Z,27.34
2023-07-22T12:33:44.270Z,27.08
2023-07-22T12:36:13.893Z,27.08
2023-07-22T12:38:46.813Z,27.29
2023-07-22T12:41:16.902Z,27.47
2023-07-22T12:43:45.809Z,27.77
2023-07-22T12:46:17.022Z,27.78
2023-07-22T12:48:46.073Z,27.93
2023-07-22T12:51:17.672Z,28.13
2023-07-22T12:53:46.606Z,28.29
2023-07-22T12:56:18.378Z,28.35
2023-07-22T12:58:47.250Z,28.25
2023-07-22T13:01:16.670Z,28.25
2023-07-22T13:03:45.734Z,28.31
2023-07-22T13:06:17.374Z,28.22
2023-07-22T13:08:46.276Z,28.30
2023-07-22T13:11:17.291Z,28.30
2023-07-22T13:13:46.228Z,28.18
2023-07-22T13:16:17.367Z,28.10
2023-07-22T13:18:46.233Z,28.01
2023-07-22T13:21:18.482Z,27.92
2023-07-22T13:23:47.285Z,27.86
2023-07-22T13:26:17.340Z,27.92
2023-07-22T13:28:46.153Z,27.89
2023-07-22T13:31:15.662Z,27.79
2023-07-22T13:33:44.497Z,27.71
2023-07-22T13:36:14.173Z,27.75
2023-07-22T13:38:46.349Z,27.82
2023-07-22T13:41:15.610Z,27.93
2023-07-22T13:43:44.351Z,27.97
2023-07-22T13:46:14.696Z,27.94
2023-07-22T13:48:43.469Z,27.91
2023-07-22T13:51:12.201Z,27.88
2023-07-22T13:53:45.016Z,27.93
2023-07-22T13:56:14.877Z,27.91
2023-07-22T13:58:43.758Z,27.79
2023-07-22T14:01:16.082Z,27.77
2023-07-22T14:03:44.929Z,27.90
2023-07-22T14:06:14.689Z,27.99
2023-07-22T14:08:46.855Z,28.02
2023-07-22T14:11:16.066Z,27.90
2023-07-22T14:13:44.955Z,27.85
2023-07-22T14:16:22.652Z,27.75
2023-07-22T14:18:53.445Z,27.71
2023-07-22T14:21:22.360Z,27.71
2023-07-22T14:23:51.078Z,27.72
2023-07-22T14:26:20.996Z,27.63
2023-07-22T14:28:49.653Z,27.49
2023-07-22T14:31:18.596Z,27.29
2023-07-22T14:33:47.498Z,27.06
2023-07-22T14:36:17.142Z,26.87
2023-07-22T14:38:46.686Z,26.69
2023-07-22T14:41:17.033Z,26.46
2023-07-22T14:43:45.756Z,26.09
2023-07-22T14:46:17.305Z,25.84
2023-07-22T14:48:46.286Z,25.84
2023-07-22T14:51:16.426Z,25.85
2023-07-22T14:53:48.254Z,25.86
2023-07-22T14:56:17.078Z,25.82
2023-07-22T14:58:46.240Z,25.77
2023-07-22T15:01:17.574Z,25.78
2023-07-22T15:03:46.576Z,25.74
2023-07-22T15:06:15.996Z,25.68
2023-07-22T15:08:45.006Z,25.56
2023-07-22T15:11:16.094Z,25.45
2023-07-22T15:13:45.020Z,25.36
2023-07-22T15:16:16.103Z,25.25
2023-07-22T15:18:44.969Z,25.13
2023-07-22T15:21:14.423Z,24.96
2023-07-22T15:23:46.350Z,24.81
2023-07-22T15:26:18.076Z,24.72
2023-07-22T15:28:47.746Z,24.51
2023-07-22T15:31:21.692Z,24.36
2023-07-22T15:33:51.201Z,24.32
2023-07-22T15:36:20.017Z,24.33
2023-07-22T15:38:48.963Z,24.31
2023-07-22T15:41:17.938Z,24.26
2023-07-22T15:43:49.001Z,24.19
2023-07-22T15:46:17.788Z,24.04
2023-07-22T15:48:46.697Z,24.02
2023-07-22T15:51:18.343Z,23.90
2023-07-22T15:53:47.166Z,23.78
2023-07-22T15:56:16.933Z,23.64
2023-07-22T15:58:45.694Z,23.47
2023-07-22T16:01:15.542Z,23.33
2023-07-22T16:03:44.506Z,23.27
2023-07-22T16:06:26.909Z,23.32
2023-07-22T16:09:04.180Z,23.38
2023-07-22T16:11:33.239Z,23.34
2023-07-22T16:14:04.166Z,23.23
2023-07-22T16:16:33.962Z,23.17
2023-07-22T16:19:06.042Z,23.05
2023-07-22T16:21:34.798Z,23.00
2023-07-22T16:24:03.808Z,22.94
2023-07-22T16:26:32.584Z,22.93
2023-07-22T16:29:02.640Z,23.01
2023-07-22T16:31:31.508Z,23.09
2023-07-22T16:34:02.409Z,23.12
2023-07-22T16:36:31.287Z,23.12
2023-07-22T16:38:59.994Z,23.11
2023-07-22T16:41:29.161Z,23.07
2023-07-22T16:43:58.275Z,22.94
2023-07-22T16:46:28.207Z,22.83
2023-07-22T16:48:57.097Z,22.77
2023-07-22T16:51:26.079Z,22.74
2023-07-22T16:53:55.390Z,22.73
2023-07-22T16:56:24.588Z,22.74
2023-07-22T16:58:54.371Z,22.69
2023-07-22T17:01:23.562Z,22.62
2023-07-22T17:03:52.393Z,22.53
2023-07-22T17:06:21.536Z,22.45
2023-07-22T17:08:50.437Z,22.40
2023-07-22T17:11:19.458Z,22.33
2023-07-22T17:13:50.449Z,22.25
2023-07-22T17:16:19.523Z,22.18
2023-07-22T17:18:48.339Z,22.11
2023-07-22T17:21:17.574Z,22.01
2023-07-22T17:23:46.329Z,21.94
2023-07-22T17:26:17.664Z,21.87
2023-07-22T17:28:46.496Z,21.79
2023-07-22T17:31:16.795Z,21.71
2023-07-22T17:33:45.697Z,21.64
2023-07-22T17:36:17.378Z,21.54
2023-07-22T17:38:46.264Z,21.46
2023-07-22T17:41:16.113Z,21.40
2023-07-22T17:43:45.135Z,21.34
2023-07-22T17:46:16.391Z,21.28
2023-07-22T17:48:47.672Z,21.21
2023-07-22T17:51:17.979Z,21.13
2023-07-22T17:53:46.709Z,21.07
2023-07-22T17:56:15.760Z,21.02
2023-07-22T17:58:44.853Z,20.95
2023-07-22T18:01:13.658Z,20.89
2023-07-22T18:03:44.174Z,20.82
2023-07-22T18:06:13.124Z,20.74
2023-07-22T18:08:45.554Z,20.64
2023-07-22T18:11:15.108Z,20.57
2023-07-22T18:13:44.119Z,20.49
2023-07-22T18:16:13.024Z,20.40
2023-07-22T18:18:41.981Z,20.32
2023-07-22T18:21:11.345Z,20.24
2023-07-22T18:23:46.924Z,20.15
2023-07-22T18:26:17.557Z,20.06
2023-07-22T18:28:46.383Z,19.98
2023-07-22T18:31:19.396Z,19.88
2023-07-22T18:33:49.820Z,19.81
2023-07-22T18:36:18.873Z,19.72
2023-07-22T18:38:47.848Z,19.63
2023-07-22T18:41:19.384Z,19.52
2023-07-22T18:43:48.550Z,19.43
2023-07-22T18:46:21.578Z,19.32
2023-07-22T18:48:50.531Z,19.20
2023-07-22T18:51:19.593Z,19.11
2023-07-22T18:53:48.606Z,19.03
2023-07-22T18:56:17.493Z,18.90
2023-07-22T18:58:46.284Z,18.77
2023-07-22T19:01:17.599Z,18.66
2023-07-22T19:03:46.667Z,18.55
2023-07-22T19:06:16.621Z,18.46
2023-07-22T19:08:46.904Z,18.36
2023-07-22T19:11:18.682Z,18.25
2023-07-22T19:13:47.524Z,18.15
2023-07-22T19:16:16.779Z,18.06
2023-07-22T19:18:45.775Z,17.98
2023-07-22T19:21:15.905Z,17.89
2023-07-22T19:23:45.934Z,17.82
2023-07-22T19:26:17.073Z,17.75
2023-07-22T19:28:45.955Z,17.68
2023-07-22T19:31:17.084Z,17.62
2023-07-22T19:33:45.965Z,17.55
2023-07-22T19:36:17.449Z,17.49
2023-07-22T19:38:46.425Z,17.43
2023-07-22T19:41:17.993Z,17.40
2023-07-22T19:43:46.721Z,17.36
2023-07-22T19:46:17.443Z,17.27
2023-07-22T19:48:46.392Z,17.17
2023-07-22T19:51:18.939Z,17.08
2023-07-22T19:53:48.299Z,17.02
2023-07-22T19:56:18.148Z,16.95
2023-07-22T19:58:47.235Z,16.87
2023-07-22T20:01:19.750Z,16.81
2023-07-22T20:03:51.892Z,16.76
2023-07-22T20:06:20.802Z,16.68
2023-07-22T20:08:52.228Z,16.63
2023-07-22T20:11:20.989Z,16.55
2023-07-22T20:13:51.697Z,16.48
2023-07-22T20:16:20.566Z,16.43
2023-07-22T20:18:49.504Z,16.39
2023-07-22T20:21:18.358Z,16.33
2023-07-22T20:23:49.210Z,16.28
2023-07-22T20:26:18.038Z,16.21
2023-07-22T20:28:46.992Z,16.14
2023-07-22T20:31:18.627Z,16.09
2023-07-22T20:33:47.617Z,16.04
2023-07-22T20:36:17.694Z,15.99
2023-07-22T20:38:46.569Z,15.93
2023-07-22T20:41:18.128Z,15.88
2023-07-22T20:43:47.357Z,15.83
2023-07-22T20:46:18.589Z,15.78
2023-07-22T20:48:47.365Z,15.72
2023-07-22T20:51:20.152Z,15.66
2023-07-22T20:53:49.217Z,15.59
2023-07-22T20:56:18.699Z,15.53
2023-07-22T20:58:47.445Z,15.48
2023-07-22T21:01:18.558Z,15.40
2023-07-22T21:03:47.377Z,15.34
2023-07-22T21:06:18.146Z,15.28
2023-07-22T21:08:47.070Z,15.24
2023-07-22T21:11:16.922Z,15.17
2023-07-22T21:13:45.710Z,15.11
2023-07-22T21:16:15.726Z,15.07
2023-07-22T21:18:44.576Z,15.03
2023-07-22T21:21:16.215Z,14.98
2023-07-22T21:23:45.137Z,14.92
2023-07-22T21:26:14.085Z,14.88
2023-07-22T21:28:43.359Z,14.82
2023-07-22T21:31:12.217Z,14.76
2023-07-22T21:33:41.146Z,14.72
2023-07-22T21:36:10.630Z,14.66
2023-07-22T21:38:45.646Z,14.63
2023-07-22T21:41:16.771Z,14.57
2023-07-22T21:43:45.708Z,14.50
2023-07-22T21:46:16.857Z,14.46
2023-07-22T21:48:45.771Z,14.41
2023-07-22T21:51:16.857Z,14.39
2023-07-22T21:53:45.630Z,14.34
2023-07-22T21:56:16.115Z,14.28
2023-07-22T21:58:45.085Z,14.23
2023-07-22T22:01:13.848Z,14.17
2023-07-22T22:03:43.850Z,14.12
2023-07-22T22:06:12.673Z,14.06
2023-07-22T22:08:45.451Z,14.00
2023-07-22T22:11:16.727Z,13.97
2023-07-22T22:13:45.502Z,13.90
2023-07-22T22:16:15.786Z,13.84
2023-07-22T22:18:44.665Z,13.78
2023-07-22T22:21:13.532Z,13.73
2023-07-22T22:23:46.002Z,13.68
2023-07-22T22:26:17.120Z,13.61
2023-07-22T22:28:45.914Z,13.55
2023-07-22T22:31:17.676Z,13.50
2023-07-22T22:33:46.488Z,13.44
2023-07-22T22:36:18.254Z,13.42
2023-07-22T22:38:46.940Z,13.36
2023-07-22T22:41:17.974Z,13.35
2023-07-22T22:43:46.899Z,13.32
2023-07-22T22:46:16.885Z,13.29
2023-07-22T22:48:45.848Z,13.28
2023-07-22T22:51:17.212Z,13.23
2023-07-22T22:53:46.044Z,13.16
2023-07-22T22:56:16.019Z,13.13
2023-07-22T22:58:44.828Z,13.13
2023-07-22T23:01:16.524Z,13.15
2023-07-22T23:03:45.671Z,13.09
2023-07-22T23:06:15.896Z,13.04
2023-07-22T23:08:46.346Z,13.00
2023-07-22T23:11:21.659Z,12.97
2023-07-22T23:13:52.388Z,12.96
2023-07-22T23:16:21.671Z,12.95
2023-07-22T23:18:50.990Z,12.93
2023-07-22T23:21:20.173Z,12.91
2023-07-22T23:23:48.998Z,12.90
2023-07-22T23:26:17.906Z,12.85
2023-07-22T23:28:46.950Z,12.81
2023-07-22T23:31:18.549Z,12.78
2023-07-22T23:33:47.273Z,12.75
2023-07-22T23:36:18.593Z,12.73
2023-07-22T23:38:47.492Z,12.67
2023-07-22T23:41:16.744Z,12.65
2023-07-22T23:43:45.534Z,12.64
2023-07-22T23:46:14.460Z,12.64
2023-07-22T23:48:44.013Z,12.60
2023-07-22T23:51:12.812Z,12.56
2023-07-22T23:53:44.751Z,12.54
2023-07-22T23:56:13.571Z,12.55
2023-07-22T23:58:42.373Z,12.53
